Lyme Center, New Hampshire
Current Conditions -  °F | °C
As of 11:53 AM on Sunday 23 Nov 2014 (Local Time) from KLEB Reporting Station
Overcast Overcast  
Wind Chill: 10°   Ceiling: 2400
Heat Index: 10°   Visibility: 10mi
Dew Point:   Wind: 8mph
Humidity: 68%   Direction: 210°SSW
Pressure: 30.06"   Gusts: NA
Location:  43.8°N, 72.12°W
Report Text: KLEB 231653Z 21007KT 10SM OVC024 10/04 A3006 RMK AO2 SLP181 T01000044
Loading
Personal Weather Stations






























Interactive Weather Map New forecast layout! Learn more

10-Day Weather Forecast

Advertisements
Track Severe Weather on mobile